createdAt,value
2022-08-03T00:00:15.212Z,93.46
2022-08-03T00:05:37.121Z,93.90
2022-08-03T00:10:39.009Z,93.99
2022-08-03T00:15:41.193Z,94.18
2022-08-03T00:20:43.673Z,94.01
2022-08-03T00:25:45.757Z,94.10
2022-08-03T00:30:47.530Z,94.04
2022-08-03T00:35:50.642Z,94.14
2022-08-03T00:40:53.231Z,94.26
2022-08-03T00:45:55.107Z,94.36
2022-08-03T00:50:57.804Z,94.29
2022-08-03T00:55:59.889Z,94.45
2022-08-03T01:01:01.690Z,94.47
2022-08-03T01:06:09.475Z,94.55
2022-08-03T01:11:29.891Z,94.84
2022-08-03T01:16:37.091Z,94.87
2022-08-03T01:21:39.069Z,95.19
2022-08-03T01:26:50.310Z,95.32
2022-08-03T01:32:53.660Z,95.47
2022-08-03T01:37:21.978Z,95.68
2022-08-03T01:42:25.182Z,95.80
2022-08-03T01:47:27.780Z,96.00
2022-08-03T01:52:30.984Z,96.19
2022-08-03T01:57:34.910Z,96.27
2022-08-03T02:02:57.982Z,96.53
2022-08-03T02:08:01.497Z,96.72
2022-08-03T02:13:04.708Z,96.76
2022-08-03T02:31:42.449Z,97.86
2022-08-03T02:36:46.333Z,98.03
2022-08-03T02:41:50.666Z,97.91
2022-08-03T02:46:54.898Z,97.90
2022-08-03T02:51:57.703Z,97.67
2022-08-03T03:06:41.108Z,96.52
2022-08-03T03:11:45.747Z,96.10
2022-08-03T03:16:51.787Z,95.99
2022-08-03T03:22:03.838Z,95.93
2022-08-03T03:27:05.614Z,95.73
2022-08-03T03:32:09.118Z,95.67
2022-08-03T03:37:11.210Z,95.33
2022-08-03T03:42:13.613Z,95.07
2022-08-03T03:53:55.964Z,95.03
2022-08-03T03:58:58.249Z,94.92
2022-08-03T04:04:19.891Z,94.80
2022-08-03T04:09:40.403Z,94.36
2022-08-03T04:14:49.350Z,94.09
2022-08-03T04:19:53.070Z,93.91
2022-08-03T04:25:10.631Z,93.86
2022-08-03T04:30:16.485Z,93.65
2022-08-03T04:35:20.614Z,93.41
2022-08-03T04:40:29.728Z,93.18
2022-08-03T04:45:35.118Z,92.91
2022-08-03T04:50:40.632Z,92.72
2022-08-03T04:55:42.455Z,92.41
2022-08-03T05:00:51.708Z,91.77
2022-08-03T05:12:01.199Z,90.56
2022-08-03T05:17:03.897Z,89.29
2022-08-03T05:22:09.216Z,88.50
2022-08-03T05:27:17.072Z,83.38
2022-08-03T06:24:57.706Z,39.92
2022-08-03T06:44:57.951Z,40.11
2022-08-03T06:50:12.793Z,38.35
2022-08-03T06:55:19.416Z,35.95
2022-08-03T07:00:21.908Z,31.95
2022-08-03T07:05:23.836Z,28.68
2022-08-03T07:10:25.976Z,28.83
2022-08-03T07:15:54.988Z,29.50
2022-08-03T07:20:50.813Z,32.13
2022-08-03T07:25:52.600Z,30.80
2022-08-03T07:30:54.374Z,30.49
2022-08-03T07:35:56.753Z,28.35
2022-08-03T07:40:58.535Z,25.21
2022-08-03T07:46:00.404Z,24.84
2022-08-03T07:51:03.203Z,23.15
2022-08-03T07:56:07.343Z,22.35
2022-08-03T08:01:15.046Z,22.65
2022-08-03T08:06:17.546Z,24.27
2022-08-03T08:11:21.881Z,26.42
2022-08-03T08:16:24.571Z,28.45
2022-08-03T08:21:26.552Z,29.54
2022-08-03T08:26:48.602Z,31.12
2022-08-03T08:31:50.377Z,32.60
2022-08-03T08:36:52.365Z,34.02
2022-08-03T08:41:54.029Z,35.31
2022-08-03T08:46:57.033Z,35.82
2022-08-03T08:52:01.161Z,36.07
2022-08-03T08:57:12.493Z,35.33
2022-08-03T09:02:28.979Z,32.51
2022-08-03T09:07:31.132Z,29.53
2022-08-03T09:12:41.391Z,28.83
2022-08-03T09:17:48.845Z,28.71
2022-08-03T09:22:54.411Z,28.71
2022-08-03T09:28:04.275Z,28.56
2022-08-03T09:33:10.863Z,24.35
2022-08-03T09:38:17.612Z,23.39
2022-08-03T09:43:19.633Z,24.27
2022-08-03T09:48:29.292Z,24.41
2022-08-03T09:53:31.279Z,24.61
2022-08-03T09:58:33.004Z,25.72
2022-08-03T10:04:03.481Z,27.20
2022-08-03T10:09:05.271Z,28.01
2022-08-03T10:14:07.966Z,29.31
2022-08-03T10:19:10.352Z,29.84
2022-08-03T10:24:12.846Z,30.52
2022-08-03T10:29:24.764Z,30.03
2022-08-03T10:34:28.888Z,30.23
2022-08-03T10:39:31.076Z,30.90
2022-08-03T10:44:37.457Z,29.48
2022-08-03T10:49:39.299Z,30.36
2022-08-03T10:55:00.982Z,31.75
2022-08-03T11:00:07.454Z,32.19
2022-08-03T11:05:25.516Z,32.48
2022-08-03T11:10:31.573Z,32.16
2022-08-03T11:15:34.186Z,32.40
2022-08-03T11:20:46.302Z,32.76
2022-08-03T11:26:07.425Z,32.65
2022-08-03T11:31:48.210Z,31.48
2022-08-03T11:37:05.455Z,31.60
2022-08-03T11:42:23.828Z,32.06
2022-08-03T11:47:28.052Z,34.11
2022-08-03T11:52:35.562Z,32.42
2022-08-03T11:59:00.851Z,33.76
2022-08-03T12:03:03.997Z,33.86
2022-08-03T12:08:08.224Z,33.36
2022-08-03T12:14:44.892Z,33.17
2022-08-03T12:18:34.608Z,33.77
2022-08-03T12:23:38.841Z,34.15
2022-08-03T12:28:49.784Z,33.38
2022-08-03T12:34:03.594Z,34.18
2022-08-03T12:39:08.143Z,33.68
2022-08-03T12:44:11.438Z,33.96
2022-08-03T12:49:16.005Z,34.53
2022-08-03T12:54:24.714Z,34.07
2022-08-03T12:59:32.376Z,33.17
2022-08-03T13:04:38.918Z,32.80
2022-08-03T13:09:46.430Z,33.34
2022-08-03T13:14:51.081Z,33.61
2022-08-03T13:19:54.479Z,32.95
2022-08-03T13:24:58.411Z,33.51
2022-08-03T13:30:01.624Z,33.45
2022-08-03T13:35:08.227Z,35.23
2022-08-03T13:40:12.712Z,35.55
2022-08-03T13:45:18.404Z,36.26
2022-08-03T13:50:22.225Z,35.25
2022-08-03T13:55:25.743Z,34.83
2022-08-03T14:00:29.750Z,35.37
2022-08-03T14:05:33.801Z,34.96
2022-08-03T14:10:38.239Z,35.25
2022-08-03T14:15:41.692Z,35.69
2022-08-03T14:20:56.342Z,35.95
2022-08-03T14:26:01.070Z,36.30
2022-08-03T14:31:04.382Z,36.25
2022-08-03T14:36:11.786Z,36.31
2022-08-03T14:41:20.107Z,36.02
2022-08-03T14:46:23.733Z,36.30
2022-08-03T14:51:26.843Z,36.67
2022-08-03T14:56:35.285Z,36.93
2022-08-03T15:02:02.674Z,36.47
2022-08-03T15:07:02.062Z,37.14
2022-08-03T15:12:06.807Z,37.15
2022-08-03T15:17:10.116Z,37.50
2022-08-03T15:22:15.990Z,37.75
2022-08-03T15:27:24.521Z,37.05
2022-08-03T15:32:27.936Z,37.31
2022-08-03T15:37:31.041Z,38.38
2022-08-03T15:42:34.458Z,37.67
2022-08-03T15:47:37.931Z,37.16
2022-08-03T15:52:42.405Z,37.23
2022-08-03T15:59:10.239Z,38.56
2022-08-03T16:03:09.721Z,38.82
2022-08-03T16:08:14.104Z,38.79
2022-08-03T16:13:17.867Z,38.87
2022-08-03T16:18:21.898Z,39.05
2022-08-03T16:23:25.312Z,37.85
2022-08-03T16:28:35.691Z,37.42
2022-08-03T16:33:38.999Z,38.07
2022-08-03T16:38:42.208Z,38.17
2022-08-03T16:43:45.424Z,38.17
2022-08-03T16:48:48.633Z,38.06
2022-08-03T16:54:05.447Z,38.22
2022-08-03T16:59:11.351Z,38.38
2022-08-03T17:04:14.633Z,38.88
2022-08-03T17:09:20.541Z,39.28
2022-08-03T17:14:28.213Z,39.87
2022-08-03T17:19:35.283Z,40.25
2022-08-03T17:24:42.343Z,40.69
2022-08-03T17:29:47.724Z,41.55
2022-08-03T17:34:50.883Z,42.11
2022-08-03T17:39:59.119Z,42.21
2022-08-03T17:45:06.449Z,42.52
2022-08-03T17:50:24.724Z,43.62
2022-08-03T17:55:58.652Z,44.04
2022-08-03T18:02:00.531Z,44.36
2022-08-03T18:06:55.722Z,44.79
2022-08-03T18:12:01.986Z,45.44
2022-08-03T18:17:11.032Z,46.42
2022-08-03T18:22:14.243Z,48.05
2022-08-03T18:27:19.525Z,49.99
2022-08-03T18:32:25.254Z,52.23
2022-08-03T18:37:29.908Z,54.59
2022-08-03T18:42:33.526Z,56.37
2022-08-03T18:47:51.866Z,57.73
2022-08-03T18:52:58.885Z,59.11
2022-08-03T18:58:09.569Z,59.93
2022-08-03T19:03:25.700Z,60.93
2022-08-03T19:08:49.573Z,62.15
2022-08-03T19:13:57.135Z,63.58
2022-08-03T19:19:01.832Z,64.66
2022-08-03T19:24:09.753Z,66.63
2022-08-03T19:29:15.052Z,68.51
2022-08-03T19:34:21.770Z,69.59
2022-08-03T19:39:31.753Z,70.42
2022-08-03T19:44:37.954Z,71.62
2022-08-03T19:49:57.793Z,72.32
2022-08-03T19:55:14.113Z,72.96
2022-08-03T20:00:26.692Z,73.85
2022-08-03T20:05:44.794Z,74.47
2022-08-03T20:10:55.676Z,75.31
2022-08-03T20:15:59.041Z,75.70
2022-08-03T20:21:15.173Z,76.42
2022-08-03T20:26:34.533Z,76.67
2022-08-03T20:31:37.894Z,76.98
2022-08-03T20:36:41.260Z,77.70
2022-08-03T20:41:45.798Z,77.74
2022-08-03T20:47:00.168Z,78.33
2022-08-03T20:52:04.299Z,79.07
2022-08-03T20:57:11.613Z,79.52
2022-08-03T21:02:19.855Z,79.86
2022-08-03T21:08:06.058Z,80.42
2022-08-03T21:13:18.859Z,80.38
2022-08-03T21:18:23.728Z,80.94
2022-08-03T21:23:40.473Z,81.13
2022-08-03T21:28:52.159Z,81.38
2022-08-03T21:33:56.908Z,81.53
2022-08-03T21:39:01.277Z,82.08
2022-08-03T21:44:05.749Z,82.88
2022-08-03T21:50:07.140Z,83.58
2022-08-03T21:54:35.444Z,84.46
2022-08-03T21:59:41.721Z,84.99
2022-08-03T22:04:55.378Z,84.88
2022-08-03T22:10:00.321Z,84.60
2022-08-03T22:15:05.669Z,84.76
2022-08-03T22:20:10.260Z,84.25
2022-08-03T22:25:15.577Z,84.23
2022-08-03T22:30:19.506Z,84.32
2022-08-03T22:35:24.352Z,84.25
2022-08-03T22:40:28.172Z,84.41
2022-08-03T22:46:06.093Z,84.56
2022-08-03T22:50:55.991Z,84.52
2022-08-03T22:55:59.197Z,84.38
2022-08-03T23:01:04.560Z,84.21
2022-08-03T23:06:08.791Z,84.31
2022-08-03T23:11:12.892Z,84.23
2022-08-03T23:16:16.847Z,84.02
2022-08-03T23:21:53.705Z,83.82
2022-08-03T23:26:57.363Z,83.66
2022-08-03T23:32:01.593Z,83.66
2022-08-03T23:37:06.031Z,83.55
2022-08-03T23:42:09.953Z,83.50
2022-08-03T23:47:13.833Z,83.57
2022-08-03T23:52:55.593Z,83.91
2022-08-03T23:57:58.697Z,84.26
